createdAt,value
2023-03-25T00:01:09.223Z,1.35
2023-03-25T00:03:42.015Z,2.45
2023-03-25T00:06:10.697Z,3.05
2023-03-25T00:08:38.180Z,2.45
2023-03-25T00:11:06.997Z,1.65
2023-03-25T00:13:34.250Z,1.92
2023-03-25T00:16:03.256Z,1.02
2023-03-25T00:18:34.344Z,2.13
2023-03-25T00:21:03.037Z,1.45
2023-03-25T00:23:31.589Z,1.33
2023-03-25T00:26:03.210Z,1.40
2023-03-25T00:28:33.375Z,1.47
2023-03-25T00:31:14.672Z,2.28
2023-03-25T00:33:41.872Z,0.98
2023-03-25T00:36:09.874Z,1.27
2023-03-25T00:38:38.115Z,2.05
2023-03-25T00:41:13.134Z,2.08
2023-03-25T00:43:40.933Z,2.20
2023-03-25T00:46:08.025Z,1.98
2023-03-25T00:48:35.244Z,1.85
2023-03-25T00:51:07.441Z,1.65
2023-03-25T00:53:35.392Z,1.73
2023-03-25T00:56:02.997Z,1.95
2023-03-25T00:58:30.413Z,1.95
2023-03-25T01:00:57.744Z,2.20
2023-03-25T01:03:26.622Z,2.50
2023-03-25T01:05:56.122Z,2.40
2023-03-25T01:08:29.696Z,2.58
2023-03-25T01:10:56.870Z,2.17
2023-03-25T01:13:24.074Z,2.65
2023-03-25T01:15:51.618Z,1.83
2023-03-25T01:18:18.684Z,3.13
2023-03-25T01:20:45.664Z,1.77
2023-03-25T01:23:12.886Z,1.75
2023-03-25T01:25:39.748Z,2.40
2023-03-25T01:28:07.314Z,2.15
2023-03-25T01:30:34.177Z,1.58
2023-03-25T01:33:01.472Z,1.92
2023-03-25T01:35:28.417Z,3.42
2023-03-25T01:37:55.258Z,1.48
2023-03-25T01:40:24.247Z,2.33
2023-03-25T01:42:51.799Z,2.35
2023-03-25T01:45:30.810Z,1.73
2023-03-25T01:48:33.010Z,1.73
2023-03-25T01:51:07.263Z,1.23
2023-03-25T01:53:34.334Z,1.65
2023-03-25T01:56:03.431Z,1.88
2023-03-25T01:58:32.094Z,1.15
2023-03-25T02:01:01.654Z,2.03
2023-03-25T02:03:30.907Z,2.00
2023-03-25T02:06:12.879Z,1.92
2023-03-25T02:08:41.647Z,1.90
2023-03-25T02:11:10.978Z,2.03
2023-03-25T02:13:40.628Z,1.42
2023-03-25T02:16:47.246Z,2.17
2023-03-25T02:19:33.119Z,1.67
2023-03-25T02:22:25.957Z,1.25
2023-03-25T02:25:35.582Z,1.52
2023-03-25T02:28:25.542Z,2.60
2023-03-25T02:31:22.642Z,1.80
2023-03-25T02:34:13.726Z,1.80
2023-03-25T02:37:01.557Z,2.15
2023-03-25T02:39:41.545Z,1.80
2023-03-25T02:42:33.273Z,2.85
2023-03-25T02:45:03.361Z,1.33
2023-03-25T02:47:40.992Z,1.40
2023-03-25T02:50:13.980Z,1.30
2023-03-25T02:52:47.059Z,1.80
2023-03-25T02:55:17.922Z,2.03
2023-03-25T02:57:47.787Z,1.50
2023-03-25T03:00:17.814Z,2.67
2023-03-25T03:02:53.568Z,2.95
2023-03-25T03:05:33.945Z,2.45
2023-03-25T03:08:19.722Z,1.65
2023-03-25T03:10:52.145Z,2.00
2023-03-25T03:13:26.282Z,1.77
2023-03-25T03:16:17.271Z,1.65
2023-03-25T03:19:15.348Z,1.20
2023-03-25T03:21:56.202Z,1.45
2023-03-25T03:24:33.379Z,1.58
2023-03-25T03:27:15.032Z,1.52
2023-03-25T03:29:49.907Z,1.70
2023-03-25T03:32:37.125Z,2.83
2023-03-25T03:35:14.499Z,1.58
2023-03-25T03:37:46.170Z,1.15
2023-03-25T03:40:18.500Z,1.60
2023-03-25T03:43:02.645Z,2.03
2023-03-25T03:45:38.449Z,1.90
2023-03-25T03:48:15.223Z,1.50
2023-03-25T03:50:51.739Z,2.15
2023-03-25T03:53:29.508Z,2.45
2023-03-25T03:56:13.745Z,3.22
2023-03-25T03:58:43.053Z,1.73
2023-03-25T04:01:15.673Z,1.95
2023-03-25T04:04:07.739Z,0.98
2023-03-25T04:07:15.919Z,3.22
2023-03-25T04:09:56.792Z,3.03
2023-03-25T04:12:28.337Z,1.50
2023-03-25T04:15:00.058Z,2.28
2023-03-25T04:17:30.095Z,1.30
2023-03-25T04:19:57.415Z,1.77
2023-03-25T04:22:24.709Z,1.92
2023-03-25T04:24:51.920Z,1.73
2023-03-25T04:27:20.184Z,1.67
2023-03-25T04:29:47.796Z,1.75
2023-03-25T04:32:15.016Z,1.50
2023-03-25T04:34:42.271Z,2.15
2023-03-25T04:37:09.166Z,3.03
2023-03-25T04:39:35.998Z,2.10
2023-03-25T04:42:03.581Z,1.55
2023-03-25T04:44:33.882Z,2.78
2023-03-25T04:47:02.580Z,2.50
2023-03-25T04:49:29.853Z,1.67
2023-03-25T04:51:58.134Z,2.85
2023-03-25T04:54:25.209Z,2.80
2023-03-25T04:56:53.187Z,2.45
2023-03-25T04:59:24.305Z,1.73
2023-03-25T05:01:52.831Z,2.60
2023-03-25T05:04:20.434Z,2.33
2023-03-25T05:06:50.632Z,2.53
2023-03-25T05:09:22.315Z,2.88
2023-03-25T05:11:51.023Z,2.92
2023-03-25T05:14:20.206Z,1.92
2023-03-25T05:16:47.826Z,2.17
2023-03-25T05:19:15.912Z,2.08
2023-03-25T05:21:42.625Z,2.35
2023-03-25T05:24:11.507Z,2.75
2023-03-25T05:26:40.230Z,3.60
2023-03-25T05:29:14.921Z,1.80
2023-03-25T05:31:45.385Z,2.90
2023-03-25T05:34:14.915Z,2.40
2023-03-25T05:36:42.084Z,3.30
2023-03-25T05:39:10.775Z,1.70
2023-03-25T05:41:40.903Z,2.53
2023-03-25T05:44:09.736Z,2.95
2023-03-25T05:46:36.552Z,2.72
2023-03-25T05:49:03.710Z,3.05
2023-03-25T05:51:34.215Z,1.95
2023-03-25T05:54:01.977Z,2.03
2023-03-25T05:56:29.796Z,2.67
2023-03-25T05:58:57.554Z,2.38
2023-03-25T06:01:33.699Z,2.60
2023-03-25T06:04:02.564Z,2.03
2023-03-25T06:06:32.399Z,3.78
2023-03-25T06:08:59.527Z,2.55
2023-03-25T06:11:26.341Z,3.28
2023-03-25T06:13:53.282Z,2.13
2023-03-25T06:16:22.301Z,1.67
2023-03-25T06:18:56.063Z,2.67
2023-03-25T06:21:23.774Z,2.13
2023-03-25T06:23:51.133Z,1.42
2023-03-25T06:26:19.367Z,2.50
2023-03-25T06:28:46.840Z,1.98
2023-03-25T06:31:16.767Z,2.75
2023-03-25T06:33:44.950Z,2.50
2023-03-25T06:36:13.724Z,2.38
2023-03-25T06:38:40.968Z,2.80
2023-03-25T06:41:08.181Z,3.33
2023-03-25T06:43:35.015Z,2.17
2023-03-25T06:46:01.837Z,2.10
2023-03-25T06:48:29.043Z,2.95
2023-03-25T06:50:55.869Z,3.30
2023-03-25T06:53:26.282Z,2.30
2023-03-25T06:55:53.266Z,2.55
2023-03-25T06:58:20.404Z,2.80
2023-03-25T07:00:47.813Z,2.75
2023-03-25T07:03:14.705Z,2.22
2023-03-25T07:05:43.506Z,2.85
2023-03-25T07:08:10.340Z,1.95
2023-03-25T07:10:37.347Z,3.00
2023-03-25T07:13:04.336Z,3.13
2023-03-25T07:15:31.289Z,3.28
2023-03-25T07:17:58.144Z,2.65
2023-03-25T07:20:25.099Z,2.28
2023-03-25T07:22:53.603Z,3.13
2023-03-25T07:25:20.672Z,2.58
2023-03-25T07:27:47.718Z,2.53
2023-03-25T07:30:14.695Z,2.10
2023-03-25T07:32:41.568Z,2.22
2023-03-25T07:35:09.528Z,2.42
2023-03-25T07:37:36.366Z,2.38
2023-03-25T07:40:03.544Z,1.60
2023-03-25T07:42:30.720Z,2.15
2023-03-25T07:45:03.039Z,1.88
2023-03-25T07:47:30.119Z,2.58
2023-03-25T07:49:56.913Z,2.28
2023-03-25T07:52:23.761Z,2.35
2023-03-25T07:54:50.810Z,2.65
2023-03-25T07:57:17.724Z,1.70
2023-03-25T07:59:44.586Z,2.10
2023-03-25T08:02:14.891Z,2.83
2023-03-25T08:04:41.896Z,3.10
2023-03-25T08:07:08.636Z,2.85
2023-03-25T08:09:35.804Z,1.33
2023-03-25T08:12:02.697Z,2.35
2023-03-25T08:14:29.843Z,2.78
2023-03-25T08:16:56.705Z,2.42
2023-03-25T08:19:26.639Z,1.92
2023-03-25T08:21:53.342Z,1.40
2023-03-25T08:24:20.535Z,2.17
2023-03-25T08:26:48.283Z,1.90
2023-03-25T08:29:17.667Z,2.10
2023-03-25T08:31:47.106Z,1.33
2023-03-25T08:34:14.775Z,2.13
2023-03-25T08:36:41.764Z,2.03
2023-03-25T08:39:11.821Z,1.92
2023-03-25T08:41:39.670Z,1.98
2023-03-25T08:44:08.402Z,1.38
2023-03-25T08:46:36.489Z,1.70
2023-03-25T08:49:04.328Z,1.67
2023-03-25T08:51:32.010Z,2.10
2023-03-25T08:53:59.134Z,2.25
2023-03-25T08:56:26.233Z,1.52
2023-03-25T08:58:54.375Z,1.63
2023-03-25T09:01:22.171Z,2.60
2023-03-25T09:03:49.056Z,1.70
2023-03-25T09:06:15.888Z,2.67
2023-03-25T09:08:43.176Z,2.15
2023-03-25T09:11:24.243Z,1.77
2023-03-25T09:13:57.371Z,1.52
2023-03-25T09:16:24.688Z,2.60
2023-03-25T09:18:51.806Z,1.92
2023-03-25T09:21:18.779Z,2.15
2023-03-25T09:23:45.930Z,2.45
2023-03-25T09:26:12.772Z,2.15
2023-03-25T09:28:39.697Z,2.08
2023-03-25T09:31:08.318Z,2.45
2023-03-25T09:33:36.397Z,1.90
2023-03-25T09:36:03.804Z,1.83
2023-03-25T09:38:30.873Z,1.50
2023-03-25T09:40:57.872Z,1.95
2023-03-25T09:43:30.335Z,1.67
2023-03-25T09:45:58.435Z,1.45
2023-03-25T09:48:41.935Z,1.42
2023-03-25T09:51:18.296Z,2.92
2023-03-25T09:54:02.708Z,1.58
2023-03-25T09:56:37.129Z,1.30
2023-03-25T09:59:19.530Z,1.38
2023-03-25T10:02:12.161Z,1.80
2023-03-25T10:05:03.676Z,1.42
2023-03-25T10:08:09.072Z,1.10
2023-03-25T10:11:06.826Z,2.00
2023-03-25T10:13:52.427Z,1.45
2023-03-25T10:16:25.730Z,2.10
2023-03-25T10:19:30.380Z,1.48
2023-03-25T10:22:07.410Z,1.58
2023-03-25T10:25:04.718Z,1.73
2023-03-25T10:27:42.973Z,2.30
2023-03-25T10:30:13.684Z,2.40
2023-03-25T10:33:02.231Z,1.75
2023-03-25T10:35:38.134Z,1.92
2023-03-25T10:38:18.799Z,1.60
2023-03-25T10:40:50.473Z,2.03
2023-03-25T10:43:36.328Z,1.98
2023-03-25T10:46:23.411Z,1.35
2023-03-25T10:48:51.262Z,2.20
2023-03-25T10:51:24.441Z,1.25
2023-03-25T10:53:53.532Z,1.98
2023-03-25T10:56:24.006Z,1.27
2023-03-25T10:58:56.367Z,2.53
2023-03-25T11:01:37.027Z,2.72
2023-03-25T11:04:07.629Z,1.48
2023-03-25T11:06:40.029Z,1.98
2023-03-25T11:09:28.091Z,0.95
2023-03-25T11:11:54.935Z,1.27
2023-03-25T11:14:24.727Z,1.55
2023-03-25T11:17:00.977Z,0.93
2023-03-25T11:19:41.602Z,1.00
2023-03-25T11:22:22.879Z,0.80
2023-03-25T11:24:54.576Z,1.85
2023-03-25T11:27:30.918Z,1.45
2023-03-25T11:30:03.794Z,1.20
2023-03-25T11:32:38.765Z,1.20
2023-03-25T11:35:16.547Z,1.00
2023-03-25T11:37:49.370Z,2.45
2023-03-25T11:40:18.688Z,0.95
2023-03-25T11:42:51.330Z,1.13
2023-03-25T11:47:49.862Z,1.73
2023-03-25T11:50:26.965Z,1.42
2023-03-25T11:53:04.354Z,2.72
2023-03-25T11:55:54.022Z,1.58
2023-03-25T11:58:28.686Z,1.13
2023-03-25T12:01:06.667Z,1.38
2023-03-25T12:03:39.457Z,1.70
2023-03-25T12:06:18.851Z,2.55
2023-03-25T12:08:50.689Z,1.38
2023-03-25T12:11:28.140Z,0.90
2023-03-25T12:13:57.676Z,1.10
2023-03-25T12:16:41.802Z,1.42
2023-03-25T12:19:54.042Z,1.20
2023-03-25T12:22:45.703Z,1.48
2023-03-25T12:25:34.368Z,1.08
2023-03-25T12:28:32.458Z,1.65
2023-03-25T12:31:29.379Z,1.92
2023-03-25T12:34:49.254Z,1.23
2023-03-25T12:37:39.859Z,1.15
2023-03-25T12:40:37.799Z,1.13
2023-03-25T12:43:10.448Z,1.35
2023-03-25T12:45:44.614Z,1.63
2023-03-25T12:51:03.661Z,1.38
2023-03-25T12:53:55.669Z,1.45
2023-03-25T12:56:41.022Z,1.77
2023-03-25T12:59:36.427Z,0.82
2023-03-25T13:02:33.353Z,1.23
2023-03-25T13:05:15.982Z,1.48
2023-03-25T13:08:18.724Z,1.48
2023-03-25T13:10:51.221Z,1.42
2023-03-25T13:16:06.413Z,1.15
2023-03-25T13:18:42.422Z,1.97
2023-03-25T13:21:22.290Z,1.10
2023-03-25T13:23:56.431Z,0.90
2023-03-25T13:26:26.300Z,1.52
2023-03-25T13:29:13.587Z,1.73
2023-03-25T13:31:43.351Z,1.05
2023-03-25T13:34:23.277Z,1.05
2023-03-25T13:37:22.613Z,1.23
2023-03-25T13:40:13.036Z,0.77
2023-03-25T13:43:05.361Z,1.17
2023-03-25T13:45:59.334Z,0.75
2023-03-25T13:48:40.959Z,0.95
2023-03-25T13:51:08.995Z,1.50
2023-03-25T13:53:40.890Z,1.48
2023-03-25T13:56:07.623Z,1.10
2023-03-25T13:58:46.871Z,1.25
2023-03-25T14:01:32.423Z,1.83
2023-03-25T14:04:08.363Z,0.90
2023-03-25T14:06:55.289Z,0.93
2023-03-25T14:09:49.439Z,1.42
2023-03-25T14:12:26.373Z,0.93
2023-03-25T14:15:06.685Z,1.05
2023-03-25T14:17:36.158Z,1.55
2023-03-25T14:20:08.670Z,0.70
2023-03-25T14:22:41.380Z,0.88
2023-03-25T14:25:48.888Z,1.17
2023-03-25T14:28:29.660Z,0.85
2023-03-25T14:31:14.983Z,1.08
2023-03-25T14:34:00.743Z,0.93
2023-03-25T14:36:40.163Z,1.20
2023-03-25T14:39:10.827Z,0.75
2023-03-25T14:42:08.160Z,0.82
2023-03-25T14:44:41.296Z,0.65
2023-03-25T14:47:20.792Z,0.70
2023-03-25T14:50:09.545Z,0.47
2023-03-25T14:52:43.985Z,0.77
2023-03-25T14:55:32.767Z,0.75
2023-03-25T14:58:16.495Z,1.00
2023-03-25T15:01:11.472Z,1.15
2023-03-25T15:03:44.093Z,1.70
2023-03-25T15:06:28.763Z,1.33
2023-03-25T15:08:59.594Z,0.60
2023-03-25T15:11:33.792Z,0.60
2023-03-25T15:14:07.806Z,0.98
2023-03-25T15:16:49.955Z,0.80
2023-03-25T15:19:20.960Z,1.30
2023-03-25T15:22:17.415Z,0.80
2023-03-25T15:24:51.041Z,1.42
2023-03-25T15:27:42.412Z,0.80
2023-03-25T15:30:15.707Z,0.93
2023-03-25T15:33:11.927Z,1.23
2023-03-25T15:36:01.856Z,0.88
2023-03-25T15:38:35.034Z,0.85
2023-03-25T15:41:11.922Z,0.77
2023-03-25T15:44:00.563Z,1.00
2023-03-25T15:47:00.992Z,0.60
2023-03-25T15:50:09.108Z,0.95
2023-03-25T15:52:55.021Z,0.75
2023-03-25T15:55:34.200Z,0.80
2023-03-25T15:58:11.551Z,1.25
2023-03-25T16:00:47.093Z,1.40
2023-03-25T16:03:18.712Z,1.00
2023-03-25T16:05:48.603Z,0.70
2023-03-25T16:08:43.153Z,0.80
2023-03-25T16:11:19.870Z,1.65
2023-03-25T16:13:48.433Z,0.82
2023-03-25T16:16:17.457Z,1.10
2023-03-25T16:18:46.160Z,1.58
2023-03-25T16:21:13.337Z,1.23
2023-03-25T16:23:40.665Z,1.10
2023-03-25T16:26:07.530Z,0.80
2023-03-25T16:28:39.883Z,1.08
2023-03-25T16:31:14.150Z,0.73
2023-03-25T16:33:41.257Z,1.00
2023-03-25T16:36:16.922Z,0.90
2023-03-25T16:38:44.512Z,0.80
2023-03-25T16:41:14.067Z,0.75
2023-03-25T16:43:41.494Z,1.25
2023-03-25T16:46:11.252Z,0.98
2023-03-25T16:48:40.993Z,1.08
2023-03-25T16:51:32.098Z,1.00
2023-03-25T16:54:01.754Z,0.90
2023-03-25T16:56:33.868Z,0.77
2023-03-25T16:59:24.205Z,1.67
2023-03-25T17:01:53.954Z,1.35
2023-03-25T17:04:26.071Z,1.23
2023-03-25T17:07:09.564Z,0.98
2023-03-25T17:09:40.197Z,1.40
2023-03-25T17:12:16.499Z,1.23
2023-03-25T17:14:46.163Z,1.70
2023-03-25T17:17:42.001Z,1.90
2023-03-25T17:20:20.458Z,2.15
2023-03-25T17:23:07.982Z,1.30
2023-03-25T17:25:58.668Z,1.70
2023-03-25T17:28:35.151Z,1.27
2023-03-25T17:31:26.064Z,1.40
2023-03-25T17:33:58.214Z,1.35
2023-03-25T17:36:25.524Z,1.55
2023-03-25T17:38:56.100Z,1.50
2023-03-25T17:41:28.928Z,1.05
2023-03-25T17:43:56.924Z,1.48
2023-03-25T17:46:31.997Z,1.83
2023-03-25T17:48:59.760Z,2.00
2023-03-25T17:51:29.481Z,2.17
2023-03-25T17:53:56.613Z,2.03
2023-03-25T17:56:28.264Z,1.48
2023-03-25T17:59:01.450Z,1.50
2023-03-25T18:01:29.268Z,2.05
2023-03-25T18:03:56.336Z,1.95
2023-03-25T18:06:24.184Z,2.45
2023-03-25T18:08:53.216Z,2.90
2023-03-25T18:11:20.809Z,1.95
2023-03-25T18:13:48.309Z,2.00
2023-03-25T18:16:21.291Z,16.20
2023-03-25T18:18:48.621Z,3.22
2023-03-25T18:21:17.377Z,1.45
2023-03-25T18:23:47.878Z,2.28
2023-03-25T18:26:17.983Z,2.88
2023-03-25T18:28:48.596Z,3.05
2023-03-25T18:31:17.567Z,3.08
2023-03-25T18:33:46.992Z,2.47
2023-03-25T18:36:14.908Z,3.28
2023-03-25T18:38:43.451Z,3.53
2023-03-25T18:41:14.477Z,2.13
2023-03-25T18:43:44.716Z,2.85
2023-03-25T18:46:14.223Z,3.35
2023-03-25T18:48:41.376Z,2.97
2023-03-25T18:51:12.309Z,3.08
2023-03-25T18:53:39.147Z,4.32
2023-03-25T18:56:07.328Z,3.75
2023-03-25T18:58:35.926Z,3.03
2023-03-25T19:01:05.156Z,3.00
2023-03-25T19:03:38.468Z,3.65
2023-03-25T19:06:09.069Z,4.03
2023-03-25T19:08:37.070Z,3.53
2023-03-25T19:11:19.248Z,4.15
2023-03-25T19:13:47.817Z,4.45
2023-03-25T19:16:14.711Z,4.43
2023-03-25T19:18:41.902Z,4.03
2023-03-25T19:21:08.858Z,4.53
2023-03-25T19:23:36.648Z,3.20
2023-03-25T19:26:04.056Z,5.25
2023-03-25T19:28:30.989Z,4.40
2023-03-25T19:31:01.330Z,3.92
2023-03-25T19:33:31.512Z,3.25
2023-03-25T19:36:02.049Z,2.92
2023-03-25T19:38:30.882Z,2.22
2023-03-25T19:41:04.686Z,3.70
2023-03-25T19:43:31.966Z,1.73
2023-03-25T19:46:00.089Z,2.28
2023-03-25T19:48:29.834Z,2.22
2023-03-25T19:50:58.035Z,3.13
2023-03-25T19:53:27.193Z,2.90
2023-03-25T19:55:55.726Z,2.65
2023-03-25T19:58:23.397Z,1.80
2023-03-25T20:00:51.764Z,1.70
2023-03-25T20:03:22.597Z,3.50
2023-03-25T20:05:56.286Z,2.30
2023-03-25T20:08:23.495Z,2.38
2023-03-25T20:10:50.692Z,2.15
2023-03-25T20:13:18.548Z,2.10
2023-03-25T20:15:46.097Z,2.25
2023-03-25T20:18:13.473Z,2.85
2023-03-25T20:20:41.407Z,2.10
2023-03-25T20:23:08.726Z,2.10
2023-03-25T20:25:35.888Z,2.22
2023-03-25T20:28:03.365Z,2.42
2023-03-25T20:30:32.593Z,1.92
2023-03-25T20:32:59.665Z,2.17
2023-03-25T20:35:28.122Z,2.35
2023-03-25T20:37:55.482Z,2.08
2023-03-25T20:40:30.689Z,2.28
2023-03-25T20:43:06.113Z,1.92
2023-03-25T20:45:33.311Z,1.95
2023-03-25T20:48:00.353Z,2.08
2023-03-25T20:50:29.574Z,2.50
2023-03-25T20:52:56.634Z,2.53
2023-03-25T20:55:23.854Z,2.25
2023-03-25T20:57:52.010Z,3.00
2023-03-25T21:00:19.680Z,3.30
2023-03-25T21:02:47.941Z,3.35
2023-03-25T21:05:15.272Z,2.08
2023-03-25T21:07:42.550Z,3.60
2023-03-25T21:10:10.115Z,3.20
2023-03-25T21:12:43.589Z,2.28
2023-03-25T21:15:15.015Z,2.45
2023-03-25T21:17:42.331Z,3.00
2023-03-25T21:20:10.305Z,2.33
2023-03-25T21:22:43.707Z,2.35
2023-03-25T21:25:13.216Z,1.95
2023-03-25T21:27:42.552Z,2.85
2023-03-25T21:30:10.624Z,3.08
2023-03-25T21:32:41.372Z,3.40
2023-03-25T21:35:09.623Z,2.95
2023-03-25T21:37:40.582Z,4.05
2023-03-25T21:40:10.867Z,3.00
2023-03-25T21:42:38.780Z,3.60
2023-03-25T21:45:08.066Z,3.60
2023-03-25T21:47:36.298Z,3.28
2023-03-25T21:50:06.397Z,4.10
2023-03-25T21:52:34.086Z,4.20
2023-03-25T21:55:01.072Z,2.85
2023-03-25T21:57:30.722Z,4.05
2023-03-25T21:59:57.919Z,3.63
2023-03-25T22:02:25.784Z,3.33
2023-03-25T22:04:52.814Z,4.80
2023-03-25T22:07:19.794Z,3.08
2023-03-25T22:09:48.324Z,3.15
2023-03-25T22:12:15.646Z,5.45
2023-03-25T22:14:42.788Z,3.38
2023-03-25T22:17:10.156Z,4.22
2023-03-25T22:19:37.216Z,4.63
2023-03-25T22:22:04.216Z,5.10
2023-03-25T22:24:31.513Z,4.57
2023-03-25T22:26:58.554Z,4.60
2023-03-25T22:29:25.768Z,4.50
2023-03-25T22:31:55.758Z,4.65
2023-03-25T22:34:22.748Z,3.80
2023-03-25T22:36:50.729Z,3.05
2023-03-25T22:39:19.615Z,3.83
2023-03-25T22:41:46.809Z,4.28
2023-03-25T22:44:17.162Z,4.03
2023-03-25T22:46:48.367Z,4.80
2023-03-25T22:49:16.070Z,4.35
2023-03-25T22:51:43.593Z,4.15
2023-03-25T22:54:10.845Z,3.63
2023-03-25T22:56:38.603Z,4.20
2023-03-25T22:59:07.854Z,4.15
2023-03-25T23:01:36.021Z,5.68
2023-03-25T23:04:03.191Z,5.93
2023-03-25T23:06:31.575Z,8.05
2023-03-25T23:08:59.295Z,8.52
2023-03-25T23:11:28.748Z,8.13
2023-03-25T23:14:01.478Z,9.80
2023-03-25T23:16:34.241Z,5.60
2023-03-25T23:19:02.723Z,4.93
2023-03-25T23:21:31.362Z,5.32
2023-03-25T23:24:03.023Z,4.85
2023-03-25T23:26:39.446Z,4.07
2023-03-25T23:29:09.230Z,5.15
2023-03-25T23:31:37.867Z,5.05
2023-03-25T23:34:07.248Z,3.50
2023-03-25T23:36:39.516Z,4.13
2023-03-25T23:39:09.145Z,4.95
2023-03-25T23:41:36.599Z,4.38
2023-03-25T23:44:04.516Z,4.72
2023-03-25T23:46:31.997Z,4.63
2023-03-25T23:49:05.818Z,4.68
2023-03-25T23:51:38.512Z,4.13
2023-03-25T23:54:07.375Z,4.68
2023-03-25T23:56:34.916Z,3.38
2023-03-25T23:59:02.768Z,5.68
